Salisbury Ocean City Wicomico Regional Airport Salisbury US
ICAO: KSBY
IATA: SBY
Category: Medium
Scheduled Services: Yes

Elevation: 52 ft
TransAlt. 18000 ft.

Airport Communications:
PATUXENT APP/DEP:127.95
ASOS:118.325
CLNC DEL:123.775
CTAF:119.425
GND:123.775
LEESBURG RDO:122.2
TWR:119.425
UNICOM:122.95

KSBY Zoom In..

If you have problems with the map follow the link
https://www.worldairports.se/pages/airport.php?
ICAO=KSBY

Runways:

(A) RW 05 length 5000 ft width 100 ft
---- / hdg 49

(B) RW 14 length 6400 ft width 100 ft
---- / hdg 139

(C) RW 23 length 5000 ft width 100 ft
---- / hdg 229

(D) RW 32 length 6400 ft width 100 ft
ILS 108.70 / hdg 319

Location; KSBY
Day. 25 / Time. 06.54 Zulu
* Altimeter: 30.00
* Temperature: 12° c. 53.6°f.
* Wind from: 110° Speed 11 kn.
Dewpoint: 08° c.
Visibility: 9 Statute Miles.
Clouds: Few 2500 ft.
Clouds: Overcast 3700 ft.

KSBY 250654Z AUTO 11011KT 9SM FEW025 OVC037 12/08 A3000 RMK AO2 SLP160 T01170083


Wind From 110°
Speed 11 kn.

 
 
jpsmedia worldairports.se 2020   terms of use